createdAt,value
2018-07-19T00:00:35.000Z,34
2018-07-19T00:02:35.000Z,34
2018-07-19T00:03:35.000Z,34
2018-07-19T00:04:35.000Z,34
2018-07-19T00:05:35.000Z,34
2018-07-19T00:06:35.000Z,34
2018-07-19T00:08:35.000Z,34
2018-07-19T00:09:35.000Z,34
2018-07-19T00:10:35.000Z,34
2018-07-19T00:11:35.000Z,34
2018-07-19T00:12:35.000Z,34
2018-07-19T00:13:35.000Z,34
2018-07-19T00:14:35.000Z,34
2018-07-19T00:15:35.000Z,34
2018-07-19T00:16:35.000Z,34
2018-07-19T00:17:35.000Z,34
2018-07-19T00:18:35.000Z,34
2018-07-19T00:19:35.000Z,34
2018-07-19T00:20:35.000Z,34
2018-07-19T00:21:35.000Z,34
2018-07-19T00:23:35.000Z,34
2018-07-19T00:24:35.000Z,34
2018-07-19T00:25:35.000Z,34
2018-07-19T00:27:35.000Z,34
2018-07-19T00:28:35.000Z,34
2018-07-19T00:29:35.000Z,34
2018-07-19T00:30:35.000Z,34
2018-07-19T00:31:35.000Z,34
2018-07-19T00:32:35.000Z,34
2018-07-19T00:33:35.000Z,34
2018-07-19T00:34:35.000Z,34
2018-07-19T00:35:35.000Z,34
2018-07-19T00:36:35.000Z,34
2018-07-19T00:37:35.000Z,34
2018-07-19T00:39:35.000Z,34
2018-07-19T00:40:35.000Z,34
2018-07-19T00:41:35.000Z,34
2018-07-19T00:42:35.000Z,34
2018-07-19T00:43:35.000Z,34
2018-07-19T00:44:35.000Z,34
2018-07-19T00:45:35.000Z,34
2018-07-19T00:46:35.000Z,34
2018-07-19T00:47:35.000Z,34
2018-07-19T00:49:35.000Z,34
2018-07-19T00:51:35.000Z,34
2018-07-19T00:52:35.000Z,34
2018-07-19T00:53:35.000Z,34
2018-07-19T00:54:35.000Z,34
2018-07-19T00:55:35.000Z,34
2018-07-19T00:56:35.000Z,34
2018-07-19T00:57:35.000Z,34
2018-07-19T00:58:35.000Z,34
2018-07-19T00:59:35.000Z,34
2018-07-19T01:00:35.000Z,34
2018-07-19T01:02:35.000Z,34
2018-07-19T01:03:35.000Z,34
2018-07-19T01:04:35.000Z,34
2018-07-19T01:05:35.000Z,34
2018-07-19T01:06:35.000Z,34
2018-07-19T01:07:35.000Z,34
2018-07-19T01:08:35.000Z,34
2018-07-19T01:09:35.000Z,34
2018-07-19T01:10:35.000Z,34
2018-07-19T01:11:35.000Z,34
2018-07-19T01:12:35.000Z,34
2018-07-19T01:14:35.000Z,34
2018-07-19T01:15:35.000Z,34
2018-07-19T01:16:35.000Z,34
2018-07-19T01:17:35.000Z,34
2018-07-19T01:18:35.000Z,34
2018-07-19T01:19:35.000Z,34
2018-07-19T01:20:35.000Z,34
2018-07-19T01:21:35.000Z,34
2018-07-19T01:23:35.000Z,34
2018-07-19T01:24:35.000Z,34
2018-07-19T01:26:35.000Z,34
2018-07-19T01:27:35.000Z,34
2018-07-19T01:28:35.000Z,34
2018-07-19T01:29:35.000Z,34
2018-07-19T01:30:35.000Z,34
2018-07-19T01:31:35.000Z,34
2018-07-19T01:32:35.000Z,34
2018-07-19T01:33:35.000Z,34
2018-07-19T01:35:35.000Z,34
2018-07-19T01:36:35.000Z,34
2018-07-19T01:37:35.000Z,35
2018-07-19T01:38:35.000Z,34
2018-07-19T01:40:35.000Z,34
2018-07-19T01:41:35.000Z,35
2018-07-19T01:42:35.000Z,35
2018-07-19T01:43:35.000Z,35
2018-07-19T01:44:35.000Z,35
2018-07-19T01:45:35.000Z,35
2018-07-19T01:46:35.000Z,35
2018-07-19T01:47:35.000Z,35
2018-07-19T01:48:35.000Z,35
2018-07-19T01:49:35.000Z,35
2018-07-19T01:50:35.000Z,35
2018-07-19T01:51:35.000Z,35
2018-07-19T01:52:35.000Z,35
2018-07-19T01:53:35.000Z,35
2018-07-19T01:54:35.000Z,35
2018-07-19T01:55:35.000Z,35
2018-07-19T01:56:35.000Z,35
2018-07-19T01:57:35.000Z,35
2018-07-19T01:58:35.000Z,35
2018-07-19T01:59:35.000Z,35
2018-07-19T02:00:35.000Z,35
2018-07-19T02:02:35.000Z,35
2018-07-19T02:03:35.000Z,35
2018-07-19T02:04:35.000Z,35
2018-07-19T02:05:35.000Z,35
2018-07-19T02:06:35.000Z,35
2018-07-19T02:07:35.000Z,35
2018-07-19T02:08:35.000Z,35
2018-07-19T02:09:35.000Z,35
2018-07-19T02:10:35.000Z,35
2018-07-19T02:11:35.000Z,35
2018-07-19T02:12:35.000Z,35
2018-07-19T02:13:35.000Z,35
2018-07-19T02:14:35.000Z,35
2018-07-19T02:15:35.000Z,35
2018-07-19T02:17:35.000Z,35
2018-07-19T02:18:35.000Z,35
2018-07-19T02:19:35.000Z,36
2018-07-19T02:20:35.000Z,35
2018-07-19T02:22:35.000Z,35
2018-07-19T02:23:35.000Z,36
2018-07-19T02:24:35.000Z,36
2018-07-19T02:25:35.000Z,36
2018-07-19T02:26:35.000Z,36
2018-07-19T02:27:35.000Z,36
2018-07-19T02:28:35.000Z,36
2018-07-19T02:29:35.000Z,36
2018-07-19T02:31:35.000Z,36
2018-07-19T02:32:35.000Z,36
2018-07-19T02:33:35.000Z,36
2018-07-19T02:34:35.000Z,36
2018-07-19T02:35:35.000Z,36
2018-07-19T02:36:35.000Z,36
2018-07-19T02:37:35.000Z,36
2018-07-19T02:38:35.000Z,36
2018-07-19T02:39:35.000Z,36
2018-07-19T02:41:35.000Z,36
2018-07-19T02:43:35.000Z,36
2018-07-19T02:44:35.000Z,36
2018-07-19T02:45:35.000Z,36
2018-07-19T02:46:35.000Z,36
2018-07-19T02:47:35.000Z,36
2018-07-19T02:48:35.000Z,36
2018-07-19T02:49:35.000Z,36
2018-07-19T02:50:35.000Z,36
2018-07-19T02:54:21.000Z,37
2018-07-19T02:55:21.000Z,37
2018-07-19T02:56:21.000Z,37
2018-07-19T02:57:21.000Z,37
2018-07-19T02:58:21.000Z,37
2018-07-19T02:59:21.000Z,37
2018-07-19T03:00:21.000Z,37
2018-07-19T03:01:21.000Z,37
2018-07-19T03:03:21.000Z,37
2018-07-19T03:04:22.000Z,37
2018-07-19T03:05:22.000Z,37
2018-07-19T03:06:22.000Z,37
2018-07-19T03:07:22.000Z,37
2018-07-19T03:08:22.000Z,37
2018-07-19T03:09:22.000Z,37
2018-07-19T03:10:22.000Z,37
2018-07-19T03:11:22.000Z,37
2018-07-19T03:12:22.000Z,37
2018-07-19T03:14:22.000Z,37
2018-07-19T03:15:22.000Z,37
2018-07-19T03:17:22.000Z,37
2018-07-19T03:19:22.000Z,37
2018-07-19T03:20:22.000Z,37
2018-07-19T03:21:22.000Z,37
2018-07-19T03:22:22.000Z,37
2018-07-19T03:23:22.000Z,37
2018-07-19T03:24:22.000Z,37
2018-07-19T03:26:22.000Z,37
2018-07-19T03:27:22.000Z,37
2018-07-19T03:28:22.000Z,37
2018-07-19T03:29:22.000Z,37
2018-07-19T03:30:22.000Z,37
2018-07-19T03:31:22.000Z,37
2018-07-19T03:32:22.000Z,37
2018-07-19T03:34:22.000Z,37
2018-07-19T03:35:22.000Z,37
2018-07-19T03:36:22.000Z,38
2018-07-19T03:37:22.000Z,38
2018-07-19T03:38:22.000Z,38
2018-07-19T03:39:22.000Z,38
2018-07-19T03:40:22.000Z,37
2018-07-19T03:41:22.000Z,38
2018-07-19T03:42:22.000Z,37
2018-07-19T03:43:22.000Z,37
2018-07-19T03:44:22.000Z,38
2018-07-19T03:45:22.000Z,37
2018-07-19T03:46:22.000Z,38
2018-07-19T03:47:22.000Z,37
2018-07-19T03:48:22.000Z,38
2018-07-19T03:49:22.000Z,37
2018-07-19T03:50:22.000Z,38
2018-07-19T03:52:22.000Z,37
2018-07-19T03:53:22.000Z,38
2018-07-19T03:54:22.000Z,38
2018-07-19T03:55:22.000Z,38
2018-07-19T03:56:22.000Z,38
2018-07-19T03:57:22.000Z,38
2018-07-19T03:58:22.000Z,38
2018-07-19T03:59:22.000Z,38
2018-07-19T04:00:22.000Z,38
2018-07-19T04:01:22.000Z,38
2018-07-19T04:02:22.000Z,38
2018-07-19T04:03:22.000Z,38
2018-07-19T04:05:22.000Z,38
2018-07-19T04:06:22.000Z,38
2018-07-19T04:07:22.000Z,38
2018-07-19T04:08:22.000Z,38
2018-07-19T04:09:22.000Z,38
2018-07-19T04:10:22.000Z,38
2018-07-19T04:11:22.000Z,38
2018-07-19T04:12:22.000Z,38
2018-07-19T04:13:22.000Z,38
2018-07-19T04:14:22.000Z,38
2018-07-19T04:15:22.000Z,38
2018-07-19T04:16:22.000Z,38
2018-07-19T04:17:22.000Z,38
2018-07-19T04:18:22.000Z,38
2018-07-19T04:19:22.000Z,38
2018-07-19T04:20:22.000Z,38
2018-07-19T04:21:22.000Z,38
2018-07-19T04:22:22.000Z,38
2018-07-19T04:23:22.000Z,38
2018-07-19T04:24:22.000Z,38
2018-07-19T04:25:22.000Z,38
2018-07-19T04:26:22.000Z,38
2018-07-19T04:27:22.000Z,38
2018-07-19T04:28:22.000Z,38
2018-07-19T04:30:22.000Z,38
2018-07-19T04:32:22.000Z,38
2018-07-19T04:33:22.000Z,39
2018-07-19T04:34:22.000Z,39
2018-07-19T04:35:22.000Z,39
2018-07-19T04:36:22.000Z,39
2018-07-19T04:37:22.000Z,39
2018-07-19T04:39:22.000Z,39
2018-07-19T04:40:22.000Z,39
2018-07-19T04:41:22.000Z,39
2018-07-19T04:43:22.000Z,39
2018-07-19T04:44:22.000Z,39
2018-07-19T04:45:22.000Z,39
2018-07-19T04:46:22.000Z,39
2018-07-19T04:47:22.000Z,39
2018-07-19T04:49:22.000Z,39
2018-07-19T04:50:22.000Z,40
2018-07-19T04:51:22.000Z,40
2018-07-19T04:52:22.000Z,40
2018-07-19T04:53:22.000Z,40
2018-07-19T04:55:22.000Z,40
2018-07-19T04:56:22.000Z,40
2018-07-19T04:57:22.000Z,40
2018-07-19T04:59:22.000Z,40
2018-07-19T05:01:22.000Z,40
2018-07-19T05:02:22.000Z,40
2018-07-19T05:03:22.000Z,40
2018-07-19T05:04:22.000Z,40
2018-07-19T05:06:22.000Z,40
2018-07-19T05:07:22.000Z,40
2018-07-19T05:08:22.000Z,40
2018-07-19T05:09:22.000Z,40
2018-07-19T05:11:22.000Z,40
2018-07-19T05:12:22.000Z,40
2018-07-19T05:13:22.000Z,40
2018-07-19T05:14:22.000Z,40
2018-07-19T05:15:22.000Z,40
2018-07-19T05:16:22.000Z,40
2018-07-19T05:17:22.000Z,40
2018-07-19T05:18:22.000Z,40
2018-07-19T05:19:22.000Z,40
2018-07-19T05:20:22.000Z,40
2018-07-19T05:21:22.000Z,40
2018-07-19T05:22:22.000Z,40
2018-07-19T05:23:22.000Z,40
2018-07-19T05:24:22.000Z,40
2018-07-19T05:26:22.000Z,40
2018-07-19T05:27:22.000Z,40
2018-07-19T05:28:22.000Z,40
2018-07-19T05:29:22.000Z,40
2018-07-19T05:30:22.000Z,40
2018-07-19T05:31:22.000Z,40
2018-07-19T05:32:22.000Z,40
2018-07-19T05:33:22.000Z,40
2018-07-19T05:34:22.000Z,40
2018-07-19T05:36:22.000Z,40
2018-07-19T05:37:22.000Z,40
2018-07-19T05:38:22.000Z,40
2018-07-19T05:39:22.000Z,40
2018-07-19T05:40:22.000Z,40
2018-07-19T05:41:22.000Z,40
2018-07-19T05:42:22.000Z,40
2018-07-19T05:43:22.000Z,40
2018-07-19T05:44:22.000Z,40
2018-07-19T05:45:22.000Z,39
2018-07-19T05:47:22.000Z,39
2018-07-19T05:48:22.000Z,39
2018-07-19T05:49:22.000Z,39
2018-07-19T05:50:22.000Z,39
2018-07-19T05:51:22.000Z,40
2018-07-19T05:52:22.000Z,39
2018-07-19T05:53:22.000Z,39
2018-07-19T05:54:22.000Z,39
2018-07-19T05:55:22.000Z,39
2018-07-19T05:56:22.000Z,39
2018-07-19T05:57:22.000Z,39
2018-07-19T05:59:22.000Z,39
2018-07-19T06:00:22.000Z,39
2018-07-19T06:01:22.000Z,39
2018-07-19T06:02:22.000Z,39
2018-07-19T06:03:22.000Z,39
2018-07-19T06:04:22.000Z,39
2018-07-19T06:05:22.000Z,39
2018-07-19T06:07:22.000Z,39
2018-07-19T06:08:22.000Z,39
2018-07-19T06:10:22.000Z,39
2018-07-19T06:11:22.000Z,39
2018-07-19T06:12:22.000Z,39
2018-07-19T06:13:22.000Z,39
2018-07-19T06:14:22.000Z,39
2018-07-19T06:15:22.000Z,39
2018-07-19T06:16:22.000Z,39
2018-07-19T06:17:22.000Z,39
2018-07-19T06:18:22.000Z,39
2018-07-19T06:19:22.000Z,39
2018-07-19T06:21:22.000Z,38
2018-07-19T06:22:22.000Z,38
2018-07-19T06:23:22.000Z,39
2018-07-19T06:24:22.000Z,38
2018-07-19T06:25:22.000Z,38
2018-07-19T06:26:22.000Z,38
2018-07-19T06:27:22.000Z,38
2018-07-19T06:28:22.000Z,38
2018-07-19T06:29:22.000Z,38
2018-07-19T06:30:22.000Z,38
2018-07-19T06:31:22.000Z,38
2018-07-19T06:32:22.000Z,38
2018-07-19T06:33:22.000Z,38
2018-07-19T06:35:22.000Z,38
2018-07-19T06:36:22.000Z,38
2018-07-19T06:37:22.000Z,38
2018-07-19T06:38:22.000Z,38
2018-07-19T06:39:22.000Z,38
2018-07-19T06:40:22.000Z,38
2018-07-19T06:41:22.000Z,38
2018-07-19T06:42:22.000Z,38
2018-07-19T06:43:22.000Z,38
2018-07-19T06:44:22.000Z,38
2018-07-19T06:45:22.000Z,38
2018-07-19T06:46:22.000Z,37
2018-07-19T06:48:22.000Z,37
2018-07-19T06:49:22.000Z,37
2018-07-19T06:50:22.000Z,38
2018-07-19T06:51:22.000Z,37
2018-07-19T06:52:22.000Z,37
2018-07-19T06:53:22.000Z,37
2018-07-19T06:54:22.000Z,37
2018-07-19T06:55:22.000Z,37
2018-07-19T06:56:22.000Z,37
2018-07-19T06:57:22.000Z,37
2018-07-19T06:58:22.000Z,37
2018-07-19T06:59:22.000Z,37
2018-07-19T07:00:22.000Z,37
2018-07-19T07:01:22.000Z,37
2018-07-19T07:03:22.000Z,37
2018-07-19T07:04:22.000Z,37
2018-07-19T07:05:22.000Z,37
2018-07-19T07:06:22.000Z,37
2018-07-19T07:07:22.000Z,37
2018-07-19T07:09:22.000Z,37
2018-07-19T07:10:22.000Z,37
2018-07-19T07:11:22.000Z,37
2018-07-19T07:13:22.000Z,36
2018-07-19T07:14:22.000Z,37
2018-07-19T07:15:22.000Z,36
2018-07-19T07:16:22.000Z,37
2018-07-19T07:17:22.000Z,36
2018-07-19T07:18:22.000Z,37
2018-07-19T07:19:21.000Z,36
2018-07-19T07:20:21.000Z,37
2018-07-19T07:21:21.000Z,36
2018-07-19T07:22:21.000Z,36
2018-07-19T07:23:21.000Z,36
2018-07-19T07:24:21.000Z,36
2018-07-19T07:26:21.000Z,36
2018-07-19T07:28:21.000Z,36
2018-07-19T07:29:21.000Z,36
2018-07-19T07:30:21.000Z,36
2018-07-19T07:31:21.000Z,36
2018-07-19T07:32:21.000Z,36
2018-07-19T07:33:21.000Z,36
2018-07-19T07:34:21.000Z,36
2018-07-19T07:36:21.000Z,36
2018-07-19T07:37:21.000Z,36
2018-07-19T07:38:21.000Z,36
2018-07-19T07:40:21.000Z,35
2018-07-19T07:41:21.000Z,36
2018-07-19T07:42:21.000Z,36
2018-07-19T07:43:21.000Z,35
2018-07-19T07:44:21.000Z,36
2018-07-19T07:45:21.000Z,36
2018-07-19T07:47:21.000Z,35
2018-07-19T07:48:21.000Z,35
2018-07-19T07:49:21.000Z,35
2018-07-19T07:50:21.000Z,35
2018-07-19T07:51:21.000Z,35
2018-07-19T07:52:21.000Z,35
2018-07-19T07:53:21.000Z,35
2018-07-19T07:54:21.000Z,35
2018-07-19T07:55:21.000Z,35
2018-07-19T07:56:21.000Z,34
2018-07-19T07:57:21.000Z,34
2018-07-19T07:58:21.000Z,34
2018-07-19T07:59:21.000Z,34
2018-07-19T08:00:21.000Z,34
2018-07-19T08:01:21.000Z,34
2018-07-19T08:02:21.000Z,34
2018-07-19T08:03:21.000Z,34
2018-07-19T08:04:21.000Z,34
2018-07-19T08:05:21.000Z,34
2018-07-19T08:06:21.000Z,34
2018-07-19T08:07:21.000Z,34
2018-07-19T08:08:21.000Z,34
2018-07-19T08:09:21.000Z,34
2018-07-19T08:10:21.000Z,34
2018-07-19T08:11:21.000Z,34
2018-07-19T08:12:21.000Z,34
2018-07-19T08:13:21.000Z,34
2018-07-19T08:14:21.000Z,33
2018-07-19T08:15:21.000Z,34
2018-07-19T08:16:21.000Z,33
2018-07-19T08:18:21.000Z,33
2018-07-19T08:19:21.000Z,33
2018-07-19T08:20:21.000Z,33
2018-07-19T08:21:21.000Z,33
2018-07-19T08:23:21.000Z,33
2018-07-19T08:24:21.000Z,33
2018-07-19T08:25:21.000Z,33
2018-07-19T08:26:21.000Z,33
2018-07-19T08:27:21.000Z,33
2018-07-19T08:28:21.000Z,33
2018-07-19T08:29:21.000Z,33
2018-07-19T08:30:21.000Z,33
2018-07-19T08:31:21.000Z,32
2018-07-19T08:32:21.000Z,32
2018-07-19T08:33:21.000Z,32
2018-07-19T08:34:21.000Z,32
2018-07-19T08:35:21.000Z,32
2018-07-19T08:36:21.000Z,32
2018-07-19T08:37:21.000Z,32
2018-07-19T08:39:21.000Z,31
2018-07-19T08:40:21.000Z,31
2018-07-19T08:42:21.000Z,31
2018-07-19T08:43:21.000Z,31
2018-07-19T08:44:21.000Z,31
2018-07-19T08:45:21.000Z,31
2018-07-19T08:47:21.000Z,30
2018-07-19T08:48:21.000Z,30
2018-07-19T08:49:21.000Z,30
2018-07-19T08:50:21.000Z,30
2018-07-19T08:51:21.000Z,30
2018-07-19T08:52:21.000Z,30
2018-07-19T08:53:21.000Z,30
2018-07-19T08:54:21.000Z,29
2018-07-19T08:55:21.000Z,29
2018-07-19T08:56:21.000Z,29
2018-07-19T08:57:21.000Z,29
2018-07-19T08:58:21.000Z,29
2018-07-19T08:59:21.000Z,29
2018-07-19T09:01:21.000Z,29
2018-07-19T09:02:21.000Z,29
2018-07-19T09:03:21.000Z,29
2018-07-19T09:04:21.000Z,29
2018-07-19T09:05:21.000Z,30
2018-07-19T09:06:21.000Z,30
2018-07-19T09:07:21.000Z,30
2018-07-19T09:08:21.000Z,30
2018-07-19T09:10:21.000Z,30
2018-07-19T09:11:21.000Z,30
2018-07-19T09:12:21.000Z,30
2018-07-19T09:13:21.000Z,31
2018-07-19T09:14:21.000Z,31
2018-07-19T09:15:21.000Z,31
2018-07-19T09:16:21.000Z,31
2018-07-19T09:17:21.000Z,31
2018-07-19T09:18:21.000Z,31
2018-07-19T09:19:21.000Z,31
2018-07-19T09:20:21.000Z,31
2018-07-19T09:21:21.000Z,31
2018-07-19T09:22:21.000Z,31
2018-07-19T09:23:21.000Z,31
2018-07-19T09:24:21.000Z,31
2018-07-19T09:25:21.000Z,31
2018-07-19T09:26:21.000Z,31
2018-07-19T09:28:21.000Z,31
2018-07-19T09:29:21.000Z,31
2018-07-19T09:30:21.000Z,31
2018-07-19T09:31:21.000Z,31
2018-07-19T09:32:21.000Z,31
2018-07-19T09:33:21.000Z,31
2018-07-19T09:34:21.000Z,31
2018-07-19T09:35:21.000Z,31
2018-07-19T09:36:21.000Z,31
2018-07-19T09:37:21.000Z,31
2018-07-19T09:38:21.000Z,31
2018-07-19T09:39:21.000Z,31
2018-07-19T09:41:21.000Z,31
2018-07-19T09:42:21.000Z,31
2018-07-19T09:44:21.000Z,30
2018-07-19T09:45:21.000Z,31
2018-07-19T09:46:21.000Z,30
2018-07-19T09:47:21.000Z,30
2018-07-19T09:48:21.000Z,30
2018-07-19T09:50:21.000Z,30
2018-07-19T09:51:21.000Z,30
2018-07-19T09:52:21.000Z,30
2018-07-19T09:53:21.000Z,30
2018-07-19T09:54:21.000Z,30
2018-07-19T09:55:21.000Z,30
2018-07-19T09:56:21.000Z,30
2018-07-19T09:58:21.000Z,30
2018-07-19T09:59:21.000Z,30
2018-07-19T10:00:21.000Z,30
2018-07-19T10:01:21.000Z,30
2018-07-19T10:02:21.000Z,30
2018-07-19T10:03:21.000Z,30
2018-07-19T10:04:21.000Z,30
2018-07-19T10:06:21.000Z,30
2018-07-19T10:07:21.000Z,30
2018-07-19T10:08:21.000Z,30
2018-07-19T10:09:21.000Z,30
2018-07-19T10:11:21.000Z,29
2018-07-19T10:12:21.000Z,30
2018-07-19T10:13:21.000Z,30
2018-07-19T10:14:21.000Z,30
2018-07-19T10:15:21.000Z,30
2018-07-19T10:16:21.000Z,30
2018-07-19T10:17:21.000Z,30
2018-07-19T10:18:21.000Z,30
2018-07-19T10:20:21.000Z,29
2018-07-19T10:21:21.000Z,29
2018-07-19T10:23:21.000Z,29
2018-07-19T10:24:21.000Z,29
2018-07-19T10:25:21.000Z,29
2018-07-19T10:26:21.000Z,29
2018-07-19T10:27:21.000Z,29
2018-07-19T10:28:21.000Z,29
2018-07-19T10:29:21.000Z,29
2018-07-19T10:30:22.000Z,29
2018-07-19T10:31:22.000Z,29
2018-07-19T10:32:22.000Z,29
2018-07-19T10:33:22.000Z,29
2018-07-19T10:34:22.000Z,29
2018-07-19T10:35:22.000Z,29
2018-07-19T10:36:22.000Z,29
2018-07-19T10:37:22.000Z,29
2018-07-19T10:38:22.000Z,29
2018-07-19T10:39:22.000Z,29
2018-07-19T10:40:22.000Z,29
2018-07-19T10:41:22.000Z,29
2018-07-19T10:42:22.000Z,29
2018-07-19T10:43:22.000Z,29
2018-07-19T10:44:22.000Z,29
2018-07-19T10:45:22.000Z,29
2018-07-19T10:47:22.000Z,29
2018-07-19T10:48:22.000Z,29
2018-07-19T10:49:22.000Z,29
2018-07-19T10:50:22.000Z,29
2018-07-19T10:51:22.000Z,29
2018-07-19T10:52:22.000Z,29
2018-07-19T10:53:22.000Z,29
2018-07-19T10:54:22.000Z,29
2018-07-19T10:55:22.000Z,29
2018-07-19T10:56:22.000Z,29
2018-07-19T10:57:22.000Z,29
2018-07-19T10:58:22.000Z,29
2018-07-19T10:59:22.000Z,29
2018-07-19T11:00:22.000Z,29
2018-07-19T11:01:22.000Z,29
2018-07-19T11:02:22.000Z,29
2018-07-19T11:03:22.000Z,29
2018-07-19T11:04:22.000Z,29
2018-07-19T11:05:22.000Z,29
2018-07-19T11:06:22.000Z,29
2018-07-19T11:07:22.000Z,29
2018-07-19T11:08:22.000Z,29
2018-07-19T11:09:22.000Z,29
2018-07-19T11:11:22.000Z,29
2018-07-19T11:12:22.000Z,29
2018-07-19T11:13:22.000Z,29
2018-07-19T11:14:22.000Z,29
2018-07-19T11:15:22.000Z,29
2018-07-19T11:16:22.000Z,29
2018-07-19T11:18:22.000Z,29
2018-07-19T11:19:22.000Z,29
2018-07-19T11:20:22.000Z,29
2018-07-19T11:21:22.000Z,29
2018-07-19T11:22:22.000Z,29
2018-07-19T11:23:22.000Z,29
2018-07-19T11:24:22.000Z,29
2018-07-19T11:25:22.000Z,29
2018-07-19T11:26:22.000Z,29
2018-07-19T11:27:22.000Z,29
2018-07-19T11:28:22.000Z,29
2018-07-19T11:30:22.000Z,29
2018-07-19T11:31:22.000Z,29
2018-07-19T11:33:22.000Z,28
2018-07-19T11:34:22.000Z,28
2018-07-19T11:35:22.000Z,28
2018-07-19T11:37:22.000Z,28
2018-07-19T11:38:22.000Z,28
2018-07-19T11:40:22.000Z,28
2018-07-19T11:41:22.000Z,28
2018-07-19T11:42:22.000Z,28
2018-07-19T11:43:22.000Z,28
2018-07-19T11:44:22.000Z,28
2018-07-19T11:45:22.000Z,28
2018-07-19T11:46:22.000Z,28
2018-07-19T11:47:22.000Z,28
2018-07-19T11:48:22.000Z,28
2018-07-19T11:49:22.000Z,28
2018-07-19T11:50:22.000Z,28
2018-07-19T11:51:22.000Z,28
2018-07-19T11:53:22.000Z,28
2018-07-19T11:54:22.000Z,28
2018-07-19T11:55:22.000Z,28
2018-07-19T11:56:22.000Z,28
2018-07-19T11:57:22.000Z,28
2018-07-19T11:58:22.000Z,28
2018-07-19T11:59:22.000Z,28
2018-07-19T12:01:22.000Z,28
2018-07-19T12:02:22.000Z,28
2018-07-19T12:03:22.000Z,28
2018-07-19T12:04:22.000Z,28
2018-07-19T12:05:22.000Z,28
2018-07-19T12:06:22.000Z,28
2018-07-19T12:08:22.000Z,28
2018-07-19T12:09:22.000Z,28
2018-07-19T12:10:22.000Z,28
2018-07-19T12:12:22.000Z,28
2018-07-19T12:13:22.000Z,28
2018-07-19T12:14:22.000Z,28
2018-07-19T12:15:22.000Z,28
2018-07-19T12:16:22.000Z,28
2018-07-19T12:17:22.000Z,28
2018-07-19T12:18:22.000Z,28
2018-07-19T12:19:22.000Z,28
2018-07-19T12:21:22.000Z,28
2018-07-19T12:22:22.000Z,28
2018-07-19T12:24:22.000Z,28
2018-07-19T12:26:22.000Z,28
2018-07-19T12:27:22.000Z,28
2018-07-19T12:28:22.000Z,28
2018-07-19T12:29:22.000Z,28
2018-07-19T12:30:22.000Z,28
2018-07-19T12:31:22.000Z,28
2018-07-19T12:32:22.000Z,28
2018-07-19T12:33:22.000Z,28
2018-07-19T12:34:22.000Z,28
2018-07-19T12:35:22.000Z,28
2018-07-19T12:36:22.000Z,28
2018-07-19T12:37:21.000Z,28
2018-07-19T12:38:21.000Z,28
2018-07-19T12:39:21.000Z,28
2018-07-19T12:40:21.000Z,28
2018-07-19T12:41:21.000Z,28
2018-07-19T12:42:21.000Z,28
2018-07-19T12:44:21.000Z,28
2018-07-19T12:45:21.000Z,28
2018-07-19T12:46:21.000Z,28
2018-07-19T12:47:21.000Z,28
2018-07-19T12:48:21.000Z,28
2018-07-19T12:49:21.000Z,28
2018-07-19T12:50:21.000Z,28
2018-07-19T12:52:21.000Z,28
2018-07-19T12:53:21.000Z,28
2018-07-19T12:54:21.000Z,28
2018-07-19T12:55:21.000Z,28
2018-07-19T12:56:21.000Z,28
2018-07-19T12:57:21.000Z,28
2018-07-19T12:58:21.000Z,28
2018-07-19T13:00:21.000Z,27
2018-07-19T13:01:21.000Z,27
2018-07-19T13:03:21.000Z,27
2018-07-19T13:04:21.000Z,27
2018-07-19T13:05:21.000Z,27
2018-07-19T13:06:21.000Z,27
2018-07-19T13:07:21.000Z,27
2018-07-19T13:08:21.000Z,27
2018-07-19T13:10:21.000Z,27
2018-07-19T13:11:21.000Z,27
2018-07-19T13:12:21.000Z,27
2018-07-19T13:13:21.000Z,27
2018-07-19T13:14:21.000Z,27
2018-07-19T13:15:21.000Z,27
2018-07-19T13:17:21.000Z,27
2018-07-19T13:18:21.000Z,27
2018-07-19T13:19:21.000Z,27
2018-07-19T13:20:21.000Z,27
2018-07-19T13:21:21.000Z,27
2018-07-19T13:22:21.000Z,27
2018-07-19T13:23:21.000Z,27
2018-07-19T13:24:21.000Z,27
2018-07-19T13:25:21.000Z,27
2018-07-19T13:26:21.000Z,27
2018-07-19T13:27:21.000Z,27
2018-07-19T13:28:21.000Z,27
2018-07-19T13:29:21.000Z,27
2018-07-19T13:30:21.000Z,27
2018-07-19T13:31:21.000Z,27
2018-07-19T13:32:21.000Z,27
2018-07-19T13:33:21.000Z,27
2018-07-19T13:35:21.000Z,27
2018-07-19T13:36:21.000Z,27
2018-07-19T13:37:21.000Z,27
2018-07-19T13:38:21.000Z,27
2018-07-19T13:40:21.000Z,27
2018-07-19T13:41:21.000Z,27
2018-07-19T13:42:21.000Z,27
2018-07-19T13:44:21.000Z,27
2018-07-19T13:45:21.000Z,27
2018-07-19T13:46:21.000Z,27
2018-07-19T13:47:21.000Z,27
2018-07-19T13:48:21.000Z,27
2018-07-19T13:49:21.000Z,28
2018-07-19T13:50:21.000Z,28
2018-07-19T13:51:21.000Z,27
2018-07-19T13:52:21.000Z,28
2018-07-19T13:54:21.000Z,27
2018-07-19T13:55:21.000Z,28
2018-07-19T13:56:21.000Z,28
2018-07-19T13:57:21.000Z,28
2018-07-19T13:59:21.000Z,28
2018-07-19T14:00:21.000Z,28
2018-07-19T14:01:21.000Z,28
2018-07-19T14:02:21.000Z,28
2018-07-19T14:03:21.000Z,28
2018-07-19T14:04:21.000Z,28
2018-07-19T14:06:21.000Z,28
2018-07-19T14:08:21.000Z,28
2018-07-19T14:09:21.000Z,28
2018-07-19T14:10:21.000Z,28
2018-07-19T14:11:21.000Z,28
2018-07-19T14:12:21.000Z,28
2018-07-19T14:13:21.000Z,28
2018-07-19T14:14:21.000Z,28
2018-07-19T14:16:21.000Z,27
2018-07-19T14:17:21.000Z,28
2018-07-19T14:18:21.000Z,28
2018-07-19T14:19:21.000Z,28
2018-07-19T14:20:21.000Z,27
2018-07-19T14:21:21.000Z,28
2018-07-19T14:22:21.000Z,27
2018-07-19T14:23:21.000Z,28
2018-07-19T14:24:21.000Z,28
2018-07-19T14:25:21.000Z,27
2018-07-19T14:26:21.000Z,27
2018-07-19T14:27:21.000Z,27
2018-07-19T14:28:21.000Z,27
2018-07-19T14:29:21.000Z,27
2018-07-19T14:30:21.000Z,27
2018-07-19T14:31:21.000Z,27
2018-07-19T14:32:21.000Z,27
2018-07-19T14:33:21.000Z,27
2018-07-19T14:35:21.000Z,27
2018-07-19T14:36:21.000Z,27
2018-07-19T14:38:21.000Z,27
2018-07-19T14:39:21.000Z,28
2018-07-19T14:40:21.000Z,27
2018-07-19T14:41:21.000Z,28
2018-07-19T14:42:21.000Z,27
2018-07-19T14:43:21.000Z,27
2018-07-19T14:44:22.000Z,27
2018-07-19T14:45:22.000Z,27
2018-07-19T14:46:22.000Z,28
2018-07-19T14:47:22.000Z,28
2018-07-19T14:48:22.000Z,27
2018-07-19T14:49:22.000Z,27
2018-07-19T14:50:22.000Z,27
2018-07-19T14:51:22.000Z,27
2018-07-19T14:52:22.000Z,27
2018-07-19T14:54:22.000Z,27
2018-07-19T14:55:22.000Z,27
2018-07-19T14:56:22.000Z,27
2018-07-19T14:57:22.000Z,27
2018-07-19T14:58:22.000Z,27
2018-07-19T14:59:22.000Z,27
2018-07-19T15:00:22.000Z,27
2018-07-19T15:01:22.000Z,27
2018-07-19T15:02:22.000Z,27
2018-07-19T15:03:22.000Z,27
2018-07-19T15:04:22.000Z,27
2018-07-19T15:05:22.000Z,27
2018-07-19T15:06:22.000Z,27
2018-07-19T15:07:22.000Z,27
2018-07-19T15:08:22.000Z,27
2018-07-19T15:09:22.000Z,27
2018-07-19T15:10:22.000Z,27
2018-07-19T15:11:22.000Z,27
2018-07-19T15:12:22.000Z,28
2018-07-19T15:13:22.000Z,27
2018-07-19T15:14:22.000Z,28
2018-07-19T15:15:22.000Z,28
2018-07-19T15:16:22.000Z,27
2018-07-19T15:17:22.000Z,28
2018-07-19T15:19:22.000Z,27
2018-07-19T15:20:22.000Z,27
2018-07-19T15:21:22.000Z,27
2018-07-19T15:22:22.000Z,27
2018-07-19T15:23:22.000Z,28
2018-07-19T15:24:22.000Z,27
2018-07-19T15:25:22.000Z,27
2018-07-19T15:26:22.000Z,27
2018-07-19T15:27:22.000Z,27
2018-07-19T15:28:22.000Z,27
2018-07-19T15:30:22.000Z,27
2018-07-19T15:31:22.000Z,27
2018-07-19T15:33:22.000Z,27
2018-07-19T15:34:22.000Z,27
2018-07-19T15:35:22.000Z,27
2018-07-19T15:36:22.000Z,27
2018-07-19T15:37:22.000Z,27
2018-07-19T15:38:22.000Z,27
2018-07-19T15:39:22.000Z,27
2018-07-19T15:40:22.000Z,27
2018-07-19T15:41:22.000Z,27
2018-07-19T15:42:22.000Z,27
2018-07-19T15:43:22.000Z,27
2018-07-19T15:44:22.000Z,27
2018-07-19T15:45:22.000Z,27
2018-07-19T15:46:22.000Z,27
2018-07-19T15:48:22.000Z,27
2018-07-19T15:49:22.000Z,27
2018-07-19T15:50:22.000Z,27
2018-07-19T15:51:22.000Z,27
2018-07-19T15:52:22.000Z,27
2018-07-19T15:53:22.000Z,27
2018-07-19T15:54:22.000Z,27
2018-07-19T15:55:22.000Z,27
2018-07-19T15:56:22.000Z,27
2018-07-19T15:57:22.000Z,27
2018-07-19T15:58:22.000Z,27
2018-07-19T16:00:22.000Z,27
2018-07-19T16:01:22.000Z,27
2018-07-19T16:02:22.000Z,26
2018-07-19T16:03:22.000Z,26
2018-07-19T16:04:22.000Z,26